Time,TemperatureF,DewpointF,PressureIn,WindDirection,WindDirectionDegrees,WindSpeedMPH,WindSpeedGustMPH,Humidity,HourlyPrecipIn,Conditions,Clouds,dailyrainin,SoftwareType,DateUTC
2013-07-08 00:00:00,71.2,69.1,29.99,NE,39,0.0,0.0,93,0.00,,,0.00,Wunderground v.1.15,2013-07-08 04:00:00,
2013-07-08 00:05:00,71.1,69.0,29.99,NE,39,0.0,0.0,93,0.00,,,0.00,Wunderground v.1.15,2013-07-08 04:05:00,
2013-07-08 00:10:00,71.1,69.0,29.98,NE,38,0.0,0.0,93,0.00,,,0.00,Wunderground v.1.15,2013-07-08 04:10:00,
2013-07-08 00:15:00,71.1,69.0,29.98,NE,38,0.0,0.0,93,0.00,,,0.00,Wunderground v.1.15,2013-07-08 04:15:00,
2013-07-08 00:20:00,71.0,68.9,29.98,NE,39,0.0,0.0,93,0.00,,,0.00,Wunderground v.1.15,2013-07-08 04:20:00,
2013-07-08 00:25:00,70.8,68.4,29.98,NE,38,0.0,0.0,92,0.00,,,0.00,Wunderground v.1.15,2013-07-08 04:25:00,
2013-07-08 00:31:00,70.8,68.7,29.98,NE,39,0.0,0.0,93,0.00,,,0.00,Wunderground v.1.15,2013-07-08 04:31:00,
2013-07-08 00:40:00,70.8,68.7,29.98,NE,38,0.0,0.0,93,0.00,,,0.00,Wunderground v.1.15,2013-07-08 04:40:00,
2013-07-08 00:45:00,70.8,68.7,29.98,NE,38,0.0,0.0,93,0.00,,,0.00,Wunderground v.1.15,2013-07-08 04:45:00,
2013-07-08 00:55:00,70.6,68.2,29.98,NE,38,0.0,0.0,92,0.00,,,0.00,Wunderground v.1.15,2013-07-08 04:55:00,
2013-07-08 01:00:00,70.5,68.4,29.98,NE,38,0.0,0.0,93,0.00,,,0.00,Wunderground v.1.15,2013-07-08 05:00:00,
2013-07-08 01:10:00,70.3,67.9,29.98,SSW,212,1.0,1.0,92,0.00,,,0.00,Wunderground v.1.15,2013-07-08 05:10:00,
2013-07-08 01:15:00,70.3,67.9,29.98,SSW,212,0.0,1.0,92,0.00,,,0.00,Wunderground v.1.15,2013-07-08 05:15:00,
2013-07-08 01:25:00,70.1,67.7,29.98,SSW,212,0.0,0.0,92,0.00,,,0.00,Wunderground v.1.15,2013-07-08 05:25:00,
2013-07-08 01:31:00,70.1,67.7,29.99,SSW,212,0.0,0.0,92,0.00,,,0.00,Wunderground v.1.15,2013-07-08 05:31:00,
2013-07-08 01:40:00,70.0,67.9,29.99,East,100,0.0,0.0,93,0.00,,,0.00,Wunderground v.1.15,2013-07-08 05:40:00,
2013-07-08 01:46:00,69.9,67.5,29.99,NE,45,0.0,1.0,92,0.00,,,0.00,Wunderground v.1.15,2013-07-08 05:46:00,
2013-07-08 01:55:00,69.9,67.5,29.99,NW,309,0.0,0.0,92,0.00,,,0.00,Wunderground v.1.15,2013-07-08 05:55:00,
2013-07-08 02:00:00,69.8,67.4,29.99,WNW,299,0.0,0.0,92,0.00,,,0.00,Wunderground v.1.15,2013-07-08 06:00:00,
2013-07-08 02:10:00,69.8,67.4,29.99,NNW,333,0.0,0.0,92,0.00,,,0.00,Wunderground v.1.15,2013-07-08 06:10:00,
2013-07-08 02:16:00,69.7,67.3,29.98,ENE,67,0.0,1.0,92,0.00,,,0.00,Wunderground v.1.15,2013-07-08 06:16:00,
2013-07-08 02:25:00,69.7,67.3,29.98,ENE,67,0.0,0.0,92,0.00,,,0.00,Wunderground v.1.15,2013-07-08 06:25:00,
2013-07-08 02:31:00,69.7,67.3,29.98,ENE,67,0.0,0.0,92,0.00,,,0.00,Wunderground v.1.15,2013-07-08 06:31:00,
2013-07-08 02:40:00,69.5,67.1,29.99,ENE,67,0.0,0.0,92,0.00,,,0.00,Wunderground v.1.15,2013-07-08 06:40:00,
2013-07-08 02:46:00,69.4,67.3,29.99,ENE,67,0.0,0.0,93,0.00,,,0.00,Wunderground v.1.15,2013-07-08 06:46:00,
2013-07-08 02:55:00,69.3,67.2,29.99,SE,144,0.0,0.0,93,0.00,,,0.00,Wunderground v.1.15,2013-07-08 06:55:00,
2013-07-08 03:01:00,69.3,67.2,29.99,SE,144,0.0,0.0,93,0.00,,,0.00,Wunderground v.1.15,2013-07-08 07:01:00,
2013-07-08 03:10:00,69.1,67.0,29.98,SE,144,0.0,0.0,93,0.00,,,0.00,Wunderground v.1.15,2013-07-08 07:10:00,
2013-07-08 03:15:00,69.0,66.9,29.98,SE,144,0.0,0.0,93,0.00,,,0.00,Wunderground v.1.15,2013-07-08 07:15:00,
2013-07-08 03:25:00,68.9,67.1,29.98,SE,144,0.0,0.0,94,0.00,,,0.00,Wunderground v.1.15,2013-07-08 07:25:00,
2013-07-08 03:31:00,68.9,67.1,29.98,SE,144,0.0,0.0,94,0.00,,,0.00,Wunderground v.1.15,2013-07-08 07:31:00,
2013-07-08 03:40:00,68.8,67.0,29.98,SE,144,0.0,0.0,94,0.00,,,0.00,Wunderground v.1.15,2013-07-08 07:40:00,
2013-07-08 03:46:00,68.7,66.9,29.98,SE,144,0.0,0.0,94,0.00,,,0.00,Wunderground v.1.15,2013-07-08 07:46:00,
2013-07-08 03:55:00,68.8,67.3,29.98,SE,144,0.0,0.0,95,0.00,,,0.00,Wunderground v.1.15,2013-07-08 07:55:00,
2013-07-08 04:01:00,68.8,67.3,29.98,SE,144,0.0,0.0,95,0.00,,,0.00,Wunderground v.1.15,2013-07-08 08:01:00,
2013-07-08 04:10:00,68.8,67.3,29.98,SE,144,0.0,0.0,95,0.00,,,0.00,Wunderground v.1.15,2013-07-08 08:10:00,
2013-07-08 04:15:00,68.8,67.3,29.98,SE,144,0.0,0.0,95,0.00,,,0.00,Wunderground v.1.15,2013-07-08 08:15:00,
2013-07-08 04:25:00,68.8,67.3,29.99,NNE,32,0.0,0.0,95,0.00,,,0.00,Wunderground v.1.15,2013-07-08 08:25:00,
2013-07-08 04:30:00,68.7,66.9,29.99,ENE,61,0.0,1.0,94,0.00,,,0.00,Wunderground v.1.15,2013-07-08 08:30:00,
2013-07-08 04:40:00,68.8,67.3,30.00,ENE,61,0.0,0.0,95,0.00,,,0.00,Wunderground v.1.15,2013-07-08 08:40:00,
2013-07-08 04:46:00,68.7,66.9,30.00,ENE,61,0.0,0.0,94,0.00,,,0.00,Wunderground v.1.15,2013-07-08 08:46:00,
2013-07-08 04:55:00,68.8,67.3,30.00,ENE,61,0.0,0.0,95,0.00,,,0.00,Wunderground v.1.15,2013-07-08 08:55:00,
2013-07-08 05:01:00,68.8,67.3,30.00,ENE,61,0.0,0.0,95,0.00,,,0.00,Wunderground v.1.15,2013-07-08 09:01:00,
2013-07-08 05:10:00,68.8,67.0,30.00,ENE,61,0.0,0.0,94,0.00,,,0.00,Wunderground v.1.15,2013-07-08 09:10:00,
2013-07-08 05:15:00,68.7,66.9,29.99,ENE,61,0.0,0.0,94,0.00,,,0.00,Wunderground v.1.15,2013-07-08 09:15:00,
2013-07-08 05:25:00,68.7,66.9,30.00,ENE,61,0.0,0.0,94,0.00,,,0.00,Wunderground v.1.15,2013-07-08 09:25:00,
2013-07-08 05:30:00,68.6,67.1,30.00,ENE,61,0.0,0.0,95,0.00,,,0.00,Wunderground v.1.15,2013-07-08 09:30:00,
2013-07-08 05:40:00,68.6,67.1,30.01,ENE,61,0.0,0.0,95,0.00,,,0.00,Wunderground v.1.15,2013-07-08 09:40:00,
2013-07-08 05:45:00,68.6,67.1,30.00,ENE,61,0.0,0.0,95,0.00,,,0.00,Wunderground v.1.15,2013-07-08 09:45:00,
2013-07-08 05:55:00,68.7,67.2,30.01,ENE,61,0.0,0.0,95,0.00,,,0.00,Wunderground v.1.15,2013-07-08 09:55:00,
2013-07-08 06:01:00,68.7,67.2,30.02,ENE,61,0.0,0.0,95,0.00,,,0.00,Wunderground v.1.15,2013-07-08 10:01:00,
2013-07-08 06:10:00,68.8,67.3,30.02,ENE,61,0.0,0.0,95,0.00,,,0.00,Wunderground v.1.15,2013-07-08 10:10:00,
2013-07-08 06:15:00,68.8,67.3,30.02,ENE,61,0.0,0.0,95,0.00,,,0.00,Wunderground v.1.15,2013-07-08 10:15:00,
2013-07-08 06:25:00,68.9,67.4,30.02,ENE,61,0.0,0.0,95,0.00,,,0.00,Wunderground v.1.15,2013-07-08 10:25:00,
2013-07-08 06:31:00,68.9,67.4,30.02,ENE,61,0.0,0.0,95,0.00,,,0.00,Wunderground v.1.15,2013-07-08 10:31:00,
2013-07-08 06:40:00,69.0,67.5,30.02,ENE,61,0.0,0.0,95,0.00,,,0.00,Wunderground v.1.15,2013-07-08 10:40:00,
2013-07-08 06:45:00,69.2,67.7,30.02,ENE,61,0.0,0.0,95,0.00,,,0.00,Wunderground v.1.15,2013-07-08 10:45:00,
2013-07-08 06:55:00,69.4,67.9,30.02,ENE,61,0.0,1.0,95,0.00,,,0.00,Wunderground v.1.15,2013-07-08 10:55:00,
2013-07-08 07:00:00,69.6,68.1,30.02,West,269,0.0,0.0,95,0.00,,,0.00,Wunderground v.1.15,2013-07-08 11:00:00,
2013-07-08 07:10:00,69.8,68.0,30.03,NNW,340,0.0,0.0,94,0.00,,,0.00,Wunderground v.1.15,2013-07-08 11:10:00,
2013-07-08 07:16:00,70.0,68.2,30.03,NNW,333,1.0,1.0,94,0.00,,,0.00,Wunderground v.1.15,2013-07-08 11:16:00,
2013-07-08 07:25:00,70.4,68.6,30.03,NNE,32,0.0,1.0,94,0.00,,,0.00,Wunderground v.1.15,2013-07-08 11:25:00,
2013-07-08 07:31:00,70.5,68.4,30.02,NNE,32,0.0,1.0,93,0.00,,,0.00,Wunderground v.1.15,2013-07-08 11:31:00,
2013-07-08 07:40:00,70.9,68.8,30.02,NNE,32,0.0,0.0,93,0.00,,,0.00,Wunderground v.1.15,2013-07-08 11:40:00,
2013-07-08 07:46:00,71.2,69.1,30.02,NNE,32,0.0,0.0,93,0.00,,,0.00,Wunderground v.1.15,2013-07-08 11:46:00,
2013-07-08 07:55:00,71.9,69.1,30.02,West,275,0.0,1.0,91,0.00,,,0.00,Wunderground v.1.15,2013-07-08 11:55:00,
2013-07-08 08:00:00,72.4,69.6,30.02,North,349,0.0,0.0,91,0.00,,,0.00,Wunderground v.1.15,2013-07-08 12:00:00,
2013-07-08 08:10:00,73.4,70.0,30.03,NW,319,0.0,0.0,89,0.00,,,0.00,Wunderground v.1.15,2013-07-08 12:10:00,
2013-07-08 08:16:00,73.8,70.0,30.03,West,264,0.0,0.0,88,0.00,,,0.00,Wunderground v.1.15,2013-07-08 12:16:00,
2013-07-08 08:25:00,74.2,70.1,30.03,WSW,238,0.0,1.0,87,0.00,,,0.00,Wunderground v.1.15,2013-07-08 12:25:00,
2013-07-08 08:31:00,74.2,70.1,30.04,WSW,238,0.0,0.0,87,0.00,,,0.00,Wunderground v.1.15,2013-07-08 12:31:00,
2013-07-08 08:40:00,74.5,70.7,30.03,SE,127,0.0,1.0,88,0.00,,,0.00,Wunderground v.1.15,2013-07-08 12:40:00,
2013-07-08 08:46:00,74.9,70.4,30.02,SSE,161,0.0,1.0,86,0.00,,,0.00,Wunderground v.1.15,2013-07-08 12:46:00,
2013-07-08 08:55:00,75.9,70.7,30.02,South,182,1.0,2.0,84,0.00,,,0.00,Wunderground v.1.15,2013-07-08 12:55:00,
2013-07-08 09:00:00,75.9,70.4,30.02,South,182,0.0,0.0,83,0.00,,,0.00,Wunderground v.1.15,2013-07-08 13:00:00,
2013-07-08 09:10:00,76.0,70.8,30.02,South,182,0.0,0.0,84,0.00,,,0.00,Wunderground v.1.15,2013-07-08 13:10:00,
2013-07-08 09:15:00,76.5,70.9,30.02,South,187,0.0,0.0,83,0.00,,,0.00,Wunderground v.1.15,2013-07-08 13:15:00,
2013-07-08 09:25:00,77.5,71.6,30.02,SW,226,0.0,2.0,82,0.00,,,0.00,Wunderground v.1.15,2013-07-08 13:25:00,
2013-07-08 09:31:00,77.9,71.6,30.02,SW,225,0.0,0.0,81,0.00,,,0.00,Wunderground v.1.15,2013-07-08 13:31:00,
2013-07-08 09:40:00,78.5,71.8,30.03,WNW,290,0.0,1.0,80,0.00,,,0.00,Wunderground v.1.15,2013-07-08 13:40:00,
2013-07-08 09:46:00,78.8,71.7,30.02,SSW,197,1.0,1.0,79,0.00,,,0.00,Wunderground v.1.15,2013-07-08 13:46:00,
2013-07-08 09:55:00,79.8,72.3,30.02,ENE,72,1.0,1.0,78,0.00,,,0.00,Wunderground v.1.15,2013-07-08 13:55:00,
2013-07-08 10:01:00,80.2,72.3,30.03,NW,316,1.0,1.0,77,0.00,,,0.00,Wunderground v.1.15,2013-07-08 14:01:00,
2013-07-08 10:10:00,80.9,72.2,30.02,South,177,1.0,3.0,75,0.00,,,0.00,Wunderground v.1.15,2013-07-08 14:10:00,
2013-07-08 10:15:00,81.9,72.8,30.02,East,84,1.0,3.0,74,0.00,,,0.00,Wunderground v.1.15,2013-07-08 14:15:00,
2013-07-08 10:25:00,83.7,72.4,30.02,NE,49,1.0,1.0,69,0.00,,,0.00,Wunderground v.1.15,2013-07-08 14:25:00,
2013-07-08 10:30:00,84.3,72.6,30.02,SW,229,1.0,1.0,68,0.00,,,0.00,Wunderground v.1.15,2013-07-08 14:30:00,
2013-07-08 10:40:00,84.3,72.1,30.02,NNW,348,0.0,1.0,67,0.00,,,0.00,Wunderground v.1.15,2013-07-08 14:40:00,
2013-07-08 10:45:00,84.3,71.7,30.02,SSW,209,0.0,1.0,66,0.00,,,0.00,Wunderground v.1.15,2013-07-08 14:45:00,
2013-07-08 10:55:00,84.5,72.3,30.02,NNW,332,1.0,1.0,67,0.00,,,0.00,Wunderground v.1.15,2013-07-08 14:55:00,
2013-07-08 11:00:00,85.0,72.8,30.02,SW,221,1.0,2.0,67,0.00,,,0.00,Wunderground v.1.15,2013-07-08 15:00:00,
2013-07-08 11:10:00,85.2,72.6,30.03,NNE,26,1.0,1.0,66,0.00,,,0.00,Wunderground v.1.15,2013-07-08 15:10:00,
2013-07-08 11:15:00,85.1,72.5,30.03,NW,307,0.0,1.0,66,0.00,,,0.00,Wunderground v.1.15,2013-07-08 15:15:00,
2013-07-08 11:25:00,86.2,72.6,30.03,SSE,167,0.0,1.0,64,0.00,,,0.00,Wunderground v.1.15,2013-07-08 15:25:00,
2013-07-08 11:31:00,86.3,72.2,30.03,WSW,256,1.0,1.0,63,0.00,,,0.00,Wunderground v.1.15,2013-07-08 15:31:00,
2013-07-08 11:40:00,86.2,72.6,30.02,WSW,252,0.0,0.0,64,0.00,,,0.00,Wunderground v.1.15,2013-07-08 15:40:00,
2013-07-08 11:46:00,86.4,72.3,30.02,NE,45,0.0,1.0,63,0.00,,,0.00,Wunderground v.1.15,2013-07-08 15:46:00,
2013-07-08 11:55:00,85.4,72.3,30.02,WNW,292,1.0,1.0,65,0.00,,,0.00,Wunderground v.1.15,2013-07-08 15:55:00,
2013-07-08 12:00:00,84.9,72.3,30.02,WSW,254,0.0,0.0,66,0.00,,,0.00,Wunderground v.1.15,2013-07-08 16:00:00,
2013-07-08 12:10:00,85.9,72.8,30.02,NNW,329,0.0,0.0,65,0.00,,,0.00,Wunderground v.1.15,2013-07-08 16:10:00,
2013-07-08 12:15:00,86.3,72.2,30.02,NW,319,0.0,0.0,63,0.00,,,0.00,Wunderground v.1.15,2013-07-08 16:15:00,
2013-07-08 12:25:00,86.3,72.2,30.02,WSW,249,1.0,1.0,63,0.00,,,0.00,Wunderground v.1.15,2013-07-08 16:25:00,
2013-07-08 12:30:00,86.2,71.6,30.02,WSW,257,1.0,2.0,62,0.00,,,0.00,Wunderground v.1.15,2013-07-08 16:30:00,
2013-07-08 12:40:00,85.5,71.9,30.02,WSW,246,1.0,1.0,64,0.00,,,0.00,Wunderground v.1.15,2013-07-08 16:40:00,
2013-07-08 12:45:00,86.3,71.7,30.02,West,269,0.0,1.0,62,0.00,,,0.00,Wunderground v.1.15,2013-07-08 16:45:00,
2013-07-08 12:55:00,87.5,72.4,30.01,SW,230,1.0,3.0,61,0.00,,,0.00,Wunderground v.1.15,2013-07-08 16:55:00,
2013-07-08 13:01:00,87.1,71.0,30.01,SSW,205,1.0,2.0,59,0.00,,,0.00,Wunderground v.1.15,2013-07-08 17:01:00,
2013-07-08 13:16:00,88.1,71.5,30.01,NNW,344,1.0,2.0,58,0.00,,,0.00,Wunderground v.1.15,2013-07-08 17:16:00,
2013-07-08 13:30:00,88.7,71.0,30.01,West,260,1.0,1.0,56,0.00,,,0.00,Wunderground v.1.15,2013-07-08 17:30:00,
2013-07-08 13:40:00,87.9,71.3,30.00,NW,321,1.0,1.0,58,0.00,,,0.00,Wunderground v.1.15,2013-07-08 17:40:00,
2013-07-08 13:46:00,88.1,71.5,30.00,SSW,202,1.0,1.0,58,0.00,,,0.00,Wunderground v.1.15,2013-07-08 17:46:00,
2013-07-08 13:55:00,87.4,71.3,30.00,West,265,1.0,1.0,59,0.00,,,0.00,Wunderground v.1.15,2013-07-08 17:55:00,
2013-07-08 14:05:00,88.5,71.3,30.00,West,270,1.0,2.0,57,0.00,,,0.00,Wunderground v.1.15,2013-07-08 18:05:00,
2013-07-08 14:15:00,89.2,70.9,29.99,NE,49,1.0,1.0,55,0.00,,,0.00,Wunderground v.1.15,2013-07-08 18:15:00,
2013-07-08 14:30:00,88.8,71.1,29.99,SW,231,0.0,0.0,56,0.00,,,0.00,Wunderground v.1.15,2013-07-08 18:30:00,
2013-07-08 14:40:00,87.2,70.6,29.99,SW,231,0.0,0.0,58,0.00,,,0.00,Wunderground v.1.15,2013-07-08 18:40:00,
2013-07-08 14:46:00,85.9,70.4,29.99,SW,231,0.0,0.0,60,0.00,,,0.00,Wunderground v.1.15,2013-07-08 18:46:00,
2013-07-08 14:55:00,84.9,70.9,30.00,West,262,0.0,0.0,63,0.00,,,0.00,Wunderground v.1.15,2013-07-08 18:55:00,
2013-07-08 15:01:00,84.2,71.6,29.99,West,261,0.0,0.0,66,0.00,,,0.00,Wunderground v.1.15,2013-07-08 19:01:00,
2013-07-08 15:10:00,84.1,72.0,29.99,WSW,248,0.0,1.0,67,0.00,,,0.00,Wunderground v.1.15,2013-07-08 19:10:00,
2013-07-08 15:15:00,84.4,70.9,29.98,WSW,258,0.0,1.0,64,0.00,,,0.00,Wunderground v.1.15,2013-07-08 19:15:00,
2013-07-08 15:25:00,85.0,68.1,29.98,WNW,282,1.0,1.0,57,0.00,,,0.00,Wunderground v.1.15,2013-07-08 19:25:00,
2013-07-08 15:30:00,85.0,70.0,29.98,SW,215,1.0,1.0,61,0.00,,,0.00,Wunderground v.1.15,2013-07-08 19:30:00,
2013-07-08 15:40:00,85.3,69.8,29.98,West,261,0.0,1.0,60,0.00,,,0.00,Wunderground v.1.15,2013-07-08 19:40:00,
2013-07-08 15:50:00,86.0,70.0,29.98,WNW,286,0.0,0.0,59,0.00,,,0.00,Wunderground v.1.15,2013-07-08 19:50:00,
2013-07-08 16:00:00,86.0,70.5,29.97,North,350,0.0,0.0,60,0.00,,,0.00,Wunderground v.1.15,2013-07-08 20:00:00,
2013-07-08 16:10:00,86.1,70.1,29.97,WSW,258,0.0,2.0,59,0.00,,,0.00,Wunderground v.1.15,2013-07-08 20:10:00,
2013-07-08 16:15:00,85.9,69.9,29.97,West,273,0.0,2.0,59,0.00,,,0.00,Wunderground v.1.15,2013-07-08 20:15:00,
2013-07-08 16:25:00,85.9,69.9,29.97,NW,315,0.0,0.0,59,0.00,,,0.00,Wunderground v.1.15,2013-07-08 20:25:00,
2013-07-08 16:35:00,86.0,70.5,29.97,West,275,1.0,1.0,60,0.00,,,0.00,Wunderground v.1.15,2013-07-08 20:35:00,
2013-07-08 16:50:00,85.9,70.9,29.97,SW,214,1.0,1.0,61,0.00,,,0.00,Wunderground v.1.15,2013-07-08 20:50:00,
2013-07-08 17:16:00,85.5,70.5,29.96,WNW,289,1.0,2.0,61,0.00,,,0.00,Wunderground v.1.15,2013-07-08 21:16:00,
2013-07-08 17:25:00,85.3,69.3,29.96,SW,219,1.0,1.0,59,0.00,,,0.00,Wunderground v.1.15,2013-07-08 21:25:00,
2013-07-08 17:35:00,85.5,71.0,29.95,SSW,209,1.0,1.0,62,0.00,,,0.00,Wunderground v.1.15,2013-07-08 21:35:00,
2013-07-08 17:50:00,85.5,70.0,29.95,NNE,32,1.0,1.0,60,0.00,,,0.00,Wunderground v.1.15,2013-07-08 21:50:00,
2013-07-08 17:55:00,85.4,69.9,29.94,NE,42,0.0,2.0,60,0.00,,,0.00,Wunderground v.1.15,2013-07-08 21:55:00,
2013-07-08 18:00:00,85.1,70.1,29.95,SSW,200,0.0,0.0,61,0.00,,,0.00,Wunderground v.1.15,2013-07-08 22:00:00,
2013-07-08 18:10:00,85.0,69.6,29.95,West,273,1.0,1.0,60,0.00,,,0.00,Wunderground v.1.15,2013-07-08 22:10:00,
2013-07-08 18:16:00,85.0,69.6,29.95,SW,220,1.0,1.0,60,0.00,,,0.00,Wunderground v.1.15,2013-07-08 22:16:00,
2013-07-08 18:35:00,84.9,70.4,29.95,West,277,0.0,0.0,62,0.00,,,0.00,Wunderground v.1.15,2013-07-08 22:35:00,
2013-07-08 18:45:00,84.5,70.0,29.95,SW,222,0.0,1.0,62,0.00,,,0.00,Wunderground v.1.15,2013-07-08 22:45:00,
2013-07-08 18:55:00,84.1,70.1,29.96,West,267,1.0,1.0,63,0.00,,,0.00,Wunderground v.1.15,2013-07-08 22:55:00,
2013-07-08 19:00:00,83.8,70.8,29.96,WSW,238,1.0,1.0,65,0.00,,,0.00,Wunderground v.1.15,2013-07-08 23:00:00,
2013-07-08 19:10:00,83.3,71.2,29.97,West,261,1.0,1.0,67,0.00,,,0.00,Wunderground v.1.15,2013-07-08 23:10:00,
2013-07-08 19:15:00,83.0,71.3,29.97,SW,236,1.0,1.0,68,0.00,,,0.00,Wunderground v.1.15,2013-07-08 23:15:00,
2013-07-08 19:30:00,82.2,71.4,29.98,SW,236,0.0,1.0,70,0.00,,,0.00,Wunderground v.1.15,2013-07-08 23:30:00,
2013-07-08 19:46:00,81.6,71.3,29.99,West,267,0.0,1.0,71,0.00,,,0.00,Wunderground v.1.15,2013-07-08 23:46:00,
2013-07-08 20:00:00,81.0,70.7,29.99,West,267,0.0,0.0,71,0.00,,,0.00,Wunderground v.1.15,2013-07-09 00:00:00,
2013-07-08 20:20:00,80.0,69.7,29.99,West,267,0.0,0.0,71,0.00,,,0.00,Wunderground v.1.15,2013-07-09 00:20:00,
2013-07-08 20:25:00,79.7,69.0,29.99,West,267,0.0,0.0,70,0.00,,,0.00,Wunderground v.1.15,2013-07-09 00:25:00,
2013-07-08 20:35:00,79.3,69.1,29.99,West,267,0.0,0.0,71,0.00,,,0.00,Wunderground v.1.15,2013-07-09 00:35:00,
2013-07-08 20:40:00,79.0,68.8,29.99,West,267,0.0,0.0,71,0.00,,,0.00,Wunderground v.1.15,2013-07-09 00:40:00,
2013-07-08 20:45:00,78.6,69.2,30.00,West,267,0.0,0.0,73,0.00,,,0.00,Wunderground v.1.15,2013-07-09 00:45:00,
2013-07-08 20:55:00,78.1,68.7,30.00,West,267,0.0,0.0,73,0.00,,,0.00,Wunderground v.1.15,2013-07-09 00:55:00,
2013-07-08 21:00:00,77.8,68.8,30.00,West,267,0.0,0.0,74,0.00,,,0.00,Wunderground v.1.15,2013-07-09 01:00:00,
2013-07-08 21:20:00,76.8,68.3,30.01,West,267,0.0,0.0,75,0.00,,,0.00,Wunderground v.1.15,2013-07-09 01:20:00,
2013-07-08 21:25:00,76.7,68.6,30.01,West,267,0.0,0.0,76,0.00,,,0.00,Wunderground v.1.15,2013-07-09 01:25:00,
2013-07-08 21:31:00,76.5,68.7,30.02,West,267,0.0,0.0,77,0.00,,,0.00,Wunderground v.1.15,2013-07-09 01:31:00,
2013-07-08 21:46:00,75.9,68.2,30.02,West,267,0.0,0.0,77,0.00,,,0.00,Wunderground v.1.15,2013-07-09 01:46:00,
2013-07-08 21:55:00,75.6,68.6,30.03,West,267,0.0,0.0,79,0.00,,,0.00,Wunderground v.1.15,2013-07-09 01:55:00,
2013-07-08 22:05:00,75.3,68.7,30.03,West,267,0.0,0.0,80,0.00,,,0.00,Wunderground v.1.15,2013-07-09 02:05:00,
2013-07-08 22:25:00,74.8,68.2,30.03,West,267,0.0,0.0,80,0.00,,,0.00,Wunderground v.1.15,2013-07-09 02:25:00,
2013-07-08 22:31:00,74.6,67.7,30.03,West,267,0.0,0.0,79,0.00,,,0.00,Wunderground v.1.15,2013-07-09 02:31:00,
2013-07-08 22:40:00,74.4,67.5,30.03,West,267,0.0,0.0,79,0.00,,,0.00,Wunderground v.1.15,2013-07-09 02:40:00,
2013-07-08 22:45:00,74.3,67.4,30.03,West,267,0.0,0.0,79,0.00,,,0.00,Wunderground v.1.15,2013-07-09 02:45:00,
2013-07-08 23:05:00,73.9,68.1,30.03,West,267,0.0,0.0,82,0.00,,,0.00,Wunderground v.1.15,2013-07-09 03:05:00,
2013-07-08 23:25:00,72.8,68.0,30.03,West,267,0.0,0.0,85,0.00,,,0.00,Wunderground v.1.15,2013-07-09 03:25:00,
2013-07-08 23:30:00,72.6,67.8,30.03,West,267,0.0,0.0,85,0.00,,,0.00,Wunderground v.1.15,2013-07-09 03:30:00,